createdAt,value
2017-11-13T00:00:05.381Z,65.27
2017-11-13T00:02:08.026Z,60.43
2017-11-13T00:04:09.270Z,61.90
2017-11-13T00:06:10.856Z,67.93
2017-11-13T00:08:13.549Z,60.37
2017-11-13T00:10:15.262Z,73.13
2017-11-13T00:12:18.171Z,60.17
2017-11-13T00:14:19.609Z,56.07
2017-11-13T00:16:20.778Z,54.70
2017-11-13T00:18:21.903Z,61.00
2017-11-13T00:20:37.747Z,58.37
2017-11-13T00:27:39.787Z,63.77
2017-11-13T00:29:40.925Z,63.93
2017-11-13T00:34:20.156Z,76.63
2017-11-13T00:38:52.275Z,54.80
2017-11-13T00:40:54.952Z,59.10
2017-11-13T00:45:23.479Z,71.83
2017-11-13T00:47:25.078Z,54.00
2017-11-13T00:49:26.364Z,57.20
2017-11-13T00:51:30.391Z,54.20
2017-11-13T00:53:31.563Z,53.53
2017-11-13T00:55:32.700Z,49.47
2017-11-13T00:57:52.505Z,53.33
2017-11-13T00:59:54.008Z,46.57
2017-11-13T01:01:55.636Z,49.23
2017-11-13T01:03:57.236Z,49.07
2017-11-13T01:06:00.325Z,49.80
2017-11-13T01:08:01.558Z,50.97
2017-11-13T01:10:02.708Z,43.60
2017-11-13T01:12:23.277Z,50.17
2017-11-13T01:14:24.425Z,48.27
2017-11-13T01:16:25.682Z,58.60
2017-11-13T01:18:44.387Z,49.23
2017-11-13T01:20:45.557Z,50.83
2017-11-13T01:22:51.523Z,57.67
2017-11-13T01:25:00.957Z,73.20
2017-11-13T01:27:02.229Z,71.80
2017-11-13T01:29:03.647Z,54.93
2017-11-13T01:31:06.543Z,53.43
2017-11-13T01:35:52.782Z,63.80
2017-11-13T01:37:55.563Z,53.00
2017-11-13T01:40:12.255Z,58.23
2017-11-13T01:44:43.811Z,48.40
2017-11-13T01:49:23.546Z,56.10
2017-11-13T01:51:26.436Z,43.47
2017-11-13T01:53:32.851Z,51.57
2017-11-13T01:55:40.588Z,47.80
2017-11-13T01:57:42.697Z,44.67
2017-11-13T01:59:47.641Z,71.28
2017-11-13T02:01:49.125Z,68.80
2017-11-13T02:06:24.289Z,53.67
2017-11-13T02:08:40.791Z,49.00
2017-11-13T02:15:37.322Z,48.53
2017-11-13T02:17:43.790Z,46.10
2017-11-13T02:22:12.013Z,51.17
2017-11-13T02:24:13.438Z,39.87
2017-11-13T02:26:14.807Z,38.30
2017-11-13T02:28:15.956Z,36.80
2017-11-13T02:30:41.011Z,32.93
2017-11-13T02:32:45.527Z,38.17
2017-11-13T02:34:47.174Z,33.53
2017-11-13T02:36:49.060Z,31.60
2017-11-13T02:41:28.948Z,35.20
2017-11-13T02:43:30.219Z,31.47
2017-11-13T02:45:31.292Z,36.10
2017-11-13T02:47:34.188Z,35.77
2017-11-13T02:49:35.969Z,45.30
2017-11-13T02:51:37.142Z,36.40
2017-11-13T02:53:40.005Z,35.23
2017-11-13T02:55:41.483Z,34.30
2017-11-13T02:57:42.523Z,36.37
2017-11-13T02:59:43.645Z,37.67
2017-11-13T03:01:58.431Z,39.17
2017-11-13T03:06:27.061Z,27.40
2017-11-13T03:10:57.780Z,28.60
2017-11-13T03:12:58.878Z,28.63
2017-11-13T03:15:00.346Z,34.63
2017-11-13T03:19:57.822Z,24.70
2017-11-13T03:22:13.077Z,21.83
2017-11-13T03:24:14.893Z,25.80
2017-11-13T03:26:16.794Z,24.50
2017-11-13T03:28:18.021Z,22.80
2017-11-13T03:30:19.404Z,26.00
2017-11-13T03:32:20.536Z,24.03
2017-11-13T03:34:48.640Z,22.37
2017-11-13T03:36:50.523Z,18.67
2017-11-13T03:38:51.945Z,20.07
2017-11-13T03:40:53.461Z,20.20
2017-11-13T03:42:54.541Z,26.27
2017-11-13T03:44:55.665Z,21.50
2017-11-13T03:46:56.730Z,24.80
2017-11-13T03:49:03.350Z,17.90
2017-11-13T03:53:34.894Z,28.93
2017-11-13T03:55:38.527Z,19.43
2017-11-13T04:02:55.773Z,15.10
2017-11-13T04:05:07.065Z,23.03
2017-11-13T04:18:49.262Z,20.57
2017-11-13T04:20:50.394Z,18.10
2017-11-13T04:22:51.506Z,26.07
2017-11-13T04:24:57.606Z,17.33
2017-11-13T04:29:37.188Z,21.87
2017-11-13T04:31:38.275Z,17.67
2017-11-13T04:33:39.305Z,22.73
2017-11-13T04:35:40.950Z,27.63
2017-11-13T04:37:41.994Z,21.47
2017-11-13T04:44:50.316Z,22.03
2017-11-13T04:46:58.482Z,33.53
2017-11-13T04:49:15.227Z,31.27
2017-11-13T04:51:38.386Z,25.87
2017-11-13T04:53:40.409Z,12.40
2017-11-13T04:55:48.586Z,19.47
2017-11-13T04:57:49.735Z,32.20
2017-11-13T04:59:50.821Z,23.40
2017-11-13T05:04:01.736Z,17.10
2017-11-13T05:06:02.940Z,25.43
2017-11-13T05:08:04.102Z,15.90
2017-11-13T05:10:06.284Z,23.67
2017-11-13T05:14:30.994Z,27.30
2017-11-13T05:16:32.117Z,14.60
2017-11-13T05:23:12.822Z,18.60
2017-11-13T05:25:14.152Z,23.80
2017-11-13T05:27:15.234Z,17.43
2017-11-13T05:29:39.901Z,13.07
2017-11-13T05:31:40.939Z,18.07
2017-11-13T05:33:42.411Z,15.00
2017-11-13T05:35:43.930Z,20.60
2017-11-13T05:37:45.387Z,10.17
2017-11-13T05:42:14.399Z,15.40
2017-11-13T05:44:15.515Z,17.50
2017-11-13T05:46:16.550Z,16.90
2017-11-13T05:50:46.834Z,21.73
2017-11-13T05:52:49.648Z,22.17
2017-11-13T05:54:51.326Z,19.03
2017-11-13T05:56:52.378Z,11.70
2017-11-13T06:01:20.944Z,15.17
2017-11-13T06:06:01.196Z,11.90
2017-11-13T06:08:23.349Z,7.43
2017-11-13T06:10:24.754Z,19.93
2017-11-13T06:12:26.135Z,14.27
2017-11-13T06:16:57.393Z,11.30
2017-11-13T06:21:37.875Z,33.23
2017-11-13T06:23:48.321Z,15.37
2017-11-13T06:25:49.756Z,21.43
2017-11-13T06:28:08.938Z,16.00
2017-11-13T06:30:10.180Z,14.40
2017-11-13T06:32:14.106Z,18.43
2017-11-13T07:28:29.101Z,12.87
2017-11-13T07:30:30.246Z,17.10
2017-11-13T07:35:16.618Z,14.53
2017-11-13T07:37:28.451Z,12.27
2017-11-13T07:39:29.503Z,6.23
2017-11-13T07:41:41.698Z,6.67
2017-11-13T07:46:10.592Z,11.80
2017-11-13T07:53:11.879Z,18.47
2017-11-13T07:55:13.010Z,13.13
2017-11-13T07:57:14.039Z,7.20
2017-11-13T07:59:21.999Z,9.80
2017-11-13T08:01:23.396Z,10.33
2017-11-13T08:03:24.465Z,7.17
2017-11-13T08:05:26.201Z,17.73
2017-11-13T08:07:28.313Z,16.37
2017-11-13T08:09:29.351Z,19.13
2017-11-13T08:11:30.718Z,7.87
2017-11-13T08:13:31.831Z,10.10
2017-11-13T08:15:32.852Z,13.97
2017-11-13T08:17:33.845Z,11.13
2017-11-13T08:19:34.859Z,28.83
2017-11-13T08:21:35.915Z,15.30
2017-11-13T08:23:37.146Z,11.50
2017-11-13T08:25:38.184Z,8.77
2017-11-13T08:27:39.243Z,18.77
2017-11-13T08:29:40.281Z,13.90
2017-11-13T08:31:41.293Z,10.17
2017-11-13T08:33:42.253Z,14.97
2017-11-13T08:35:43.327Z,11.43
2017-11-13T08:37:44.359Z,7.63
2017-11-13T08:39:45.375Z,11.50
2017-11-13T08:41:46.381Z,10.07
2017-11-13T08:43:47.318Z,18.47
2017-11-13T08:45:48.347Z,15.60
2017-11-13T08:47:49.356Z,17.77
2017-11-13T08:49:50.382Z,15.77
2017-11-13T08:51:51.487Z,10.90
2017-11-13T08:53:52.769Z,20.50
2017-11-13T08:55:53.846Z,12.50
2017-11-13T08:57:54.846Z,9.40
2017-11-13T09:00:02.705Z,6.27
2017-11-13T09:02:03.739Z,9.43
2017-11-13T09:04:04.746Z,10.80
2017-11-13T09:06:05.765Z,11.10
2017-11-13T09:08:07.967Z,7.37
2017-11-13T09:10:09.032Z,11.37
2017-11-13T09:12:10.025Z,12.40
2017-11-13T09:14:11.064Z,6.67
2017-11-13T09:16:12.116Z,8.23
2017-11-13T09:18:13.119Z,8.73
2017-11-13T09:20:14.172Z,7.80
2017-11-13T09:22:15.592Z,6.87
2017-11-13T09:24:17.411Z,6.73
2017-11-13T09:26:18.419Z,8.60
2017-11-13T09:28:19.564Z,11.17
2017-11-13T09:30:20.563Z,9.90
2017-11-13T09:32:21.593Z,11.00
2017-11-13T09:34:22.685Z,9.00
2017-11-13T09:36:23.773Z,6.30
2017-11-13T09:38:24.754Z,5.27
2017-11-13T09:40:25.785Z,6.57
2017-11-13T09:42:26.794Z,8.40
2017-11-13T09:44:28.655Z,8.10
2017-11-13T09:46:30.540Z,3.20
2017-11-13T09:48:31.578Z,6.53
2017-11-13T09:50:32.619Z,6.43
2017-11-13T09:52:33.639Z,5.07
2017-11-13T09:54:34.633Z,9.83
2017-11-13T09:56:35.670Z,4.90
2017-11-13T09:58:37.439Z,5.73
2017-11-13T10:00:38.489Z,9.80
2017-11-13T10:02:39.502Z,6.70
2017-11-13T10:04:40.577Z,7.40
2017-11-13T10:06:42.336Z,8.13
2017-11-13T10:08:43.341Z,5.40
2017-11-13T10:10:44.370Z,8.33
2017-11-13T10:12:45.365Z,10.20
2017-11-13T10:14:47.135Z,6.30
2017-11-13T10:16:48.150Z,8.03
2017-11-13T10:18:49.155Z,12.07
2017-11-13T10:20:50.240Z,9.37
2017-11-13T10:22:51.335Z,8.50
2017-11-13T10:24:52.356Z,6.10
2017-11-13T10:26:54.113Z,6.17
2017-11-13T10:28:55.179Z,5.83
2017-11-13T10:30:57.013Z,8.90
2017-11-13T10:32:58.083Z,10.80
2017-11-13T10:34:59.242Z,4.83
2017-11-13T10:37:00.278Z,3.67
2017-11-13T10:39:01.360Z,5.30
2017-11-13T10:41:02.467Z,4.57
2017-11-13T10:43:03.557Z,3.50
2017-11-13T10:45:04.587Z,6.93
2017-11-13T10:47:05.598Z,7.63
2017-11-13T10:49:06.589Z,4.33
2017-11-13T10:51:08.406Z,6.87
2017-11-13T10:53:09.549Z,9.83
2017-11-13T10:55:10.659Z,5.53
2017-11-13T10:57:11.679Z,9.23
2017-11-13T10:59:12.792Z,5.90
2017-11-13T11:01:13.849Z,5.00
2017-11-13T11:03:14.972Z,6.00
2017-11-13T11:05:16.052Z,8.60
2017-11-13T11:07:17.029Z,7.13
2017-11-13T11:09:18.062Z,6.37
2017-11-13T11:11:19.941Z,2.90
2017-11-13T11:13:23.156Z,8.00
2017-11-13T11:15:27.875Z,7.00
2017-11-13T11:17:30.806Z,3.13
2017-11-13T11:19:36.634Z,7.17
2017-11-13T11:21:39.599Z,14.03
2017-11-13T11:23:40.674Z,5.97
2017-11-13T11:25:41.722Z,6.50
2017-11-13T11:27:42.766Z,2.50
2017-11-13T11:29:44.536Z,5.73
2017-11-13T11:31:46.305Z,5.10
2017-11-13T11:33:53.107Z,3.50
2017-11-13T11:35:58.927Z,5.60
2017-11-13T11:37:59.948Z,7.40
2017-11-13T11:40:00.942Z,7.07
2017-11-13T11:42:01.933Z,4.87
2017-11-13T11:44:04.859Z,4.20
2017-11-13T11:46:15.881Z,3.50
2017-11-13T11:48:16.918Z,6.80
2017-11-13T11:50:17.983Z,5.30
2017-11-13T11:52:19.028Z,3.73
2017-11-13T11:54:20.158Z,5.10
2017-11-13T11:56:31.111Z,6.17
2017-11-13T11:58:32.240Z,4.87
2017-11-13T12:00:33.360Z,5.70
2017-11-13T12:02:34.419Z,3.57
2017-11-13T12:04:35.569Z,7.37
2017-11-13T12:06:36.595Z,7.13
2017-11-13T12:08:37.680Z,3.70
2017-11-13T12:10:38.774Z,4.70
2017-11-13T12:12:40.529Z,5.07
2017-11-13T12:14:41.586Z,3.30
2017-11-13T12:16:42.640Z,3.23
2017-11-13T12:18:43.749Z,4.17
2017-11-13T12:20:44.987Z,5.80
2017-11-13T12:22:46.041Z,3.63
2017-11-13T12:24:47.125Z,3.37
2017-11-13T12:26:48.167Z,5.77
2017-11-13T12:28:49.151Z,3.40
2017-11-13T12:30:50.177Z,3.20
2017-11-13T12:32:52.171Z,7.40
2017-11-13T12:34:53.296Z,4.97
2017-11-13T12:36:55.122Z,5.07
2017-11-13T12:38:56.335Z,5.67
2017-11-13T12:40:57.418Z,7.73
2017-11-13T12:42:58.898Z,8.40
2017-11-13T12:45:00.227Z,4.40
2017-11-13T12:47:01.215Z,7.73
2017-11-13T12:49:02.352Z,3.30
2017-11-13T12:51:03.413Z,3.30
2017-11-13T12:53:04.443Z,3.00
2017-11-13T12:55:05.549Z,5.73
2017-11-13T12:57:06.735Z,3.77
2017-11-13T12:59:07.954Z,5.57
2017-11-13T13:01:10.162Z,4.57
2017-11-13T13:03:11.281Z,3.10
2017-11-13T13:05:12.427Z,4.53
2017-11-13T13:07:13.643Z,3.07
2017-11-13T13:09:14.856Z,4.77
2017-11-13T13:11:16.046Z,3.80
2017-11-13T13:13:17.221Z,2.87
2017-11-13T13:15:18.458Z,5.17
2017-11-13T13:17:19.580Z,5.10
2017-11-13T13:19:20.624Z,7.87
2017-11-13T13:21:21.856Z,4.37
2017-11-13T13:23:23.013Z,3.67
2017-11-13T13:25:24.054Z,5.10
2017-11-13T13:27:26.124Z,5.40
2017-11-13T13:29:27.233Z,2.60
2017-11-13T13:31:29.203Z,4.50
2017-11-13T13:33:30.301Z,5.57
2017-11-13T13:35:31.611Z,3.47
2017-11-13T13:37:32.789Z,4.13
2017-11-13T13:39:34.001Z,1.60
2017-11-13T13:41:35.212Z,2.77
2017-11-13T13:43:38.488Z,3.10
2017-11-13T13:45:39.632Z,4.13
2017-11-13T13:47:40.734Z,6.20
2017-11-13T13:49:41.843Z,5.93
2017-11-13T13:51:42.835Z,4.17
2017-11-13T13:53:43.874Z,4.63
2017-11-13T13:55:44.979Z,5.17
2017-11-13T13:57:46.229Z,5.03
2017-11-13T13:59:47.489Z,2.80
2017-11-13T14:01:48.683Z,9.00
2017-11-13T14:03:50.687Z,5.33
2017-11-13T14:05:51.856Z,1.40
2017-11-13T14:07:53.005Z,1.63
2017-11-13T14:09:54.282Z,5.33
2017-11-13T14:11:55.492Z,7.63
2017-11-13T14:13:56.606Z,5.33
2017-11-13T14:15:57.667Z,6.60
2017-11-13T14:17:58.846Z,2.90
2017-11-13T14:19:59.956Z,9.03
2017-11-13T14:22:01.804Z,11.10
2017-11-13T14:24:02.835Z,3.60
2017-11-13T14:26:04.011Z,6.73
2017-11-13T14:28:06.754Z,5.90
2017-11-13T14:30:08.015Z,7.47
2017-11-13T14:32:09.132Z,6.30
2017-11-13T14:34:10.325Z,2.87
2017-11-13T14:36:11.455Z,4.03
2017-11-13T14:38:12.565Z,8.50
2017-11-13T14:40:13.591Z,4.10
2017-11-13T14:42:14.853Z,6.97
2017-11-13T14:44:16.077Z,9.60
2017-11-13T14:46:17.950Z,4.47
2017-11-13T14:48:19.158Z,8.23
2017-11-13T14:50:20.613Z,6.00
2017-11-13T14:52:21.665Z,7.70
2017-11-13T14:54:22.904Z,11.27
2017-11-13T14:56:24.028Z,6.07
2017-11-13T14:58:25.120Z,5.23
2017-11-13T15:00:26.202Z,7.43
2017-11-13T15:02:27.213Z,4.17
2017-11-13T15:04:28.388Z,5.27
2017-11-13T15:06:29.360Z,5.70
2017-11-13T15:08:30.369Z,9.03
2017-11-13T15:10:31.456Z,2.00
2017-11-13T15:12:33.265Z,5.53
2017-11-13T15:14:34.992Z,3.10
2017-11-13T15:16:35.998Z,2.73
2017-11-13T15:18:36.992Z,11.40
2017-11-13T15:20:37.958Z,3.57
2017-11-13T15:22:39.002Z,13.67
2017-11-13T15:24:40.041Z,4.60
2017-11-13T15:26:41.110Z,9.13
2017-11-13T15:28:42.172Z,7.10
2017-11-13T15:30:44.930Z,10.50
2017-11-13T15:32:45.929Z,2.93
2017-11-13T15:34:46.981Z,8.33
2017-11-13T15:36:48.051Z,7.70
2017-11-13T15:38:49.935Z,10.70
2017-11-13T15:40:51.323Z,10.27
2017-11-13T15:42:52.753Z,22.47
2017-11-13T15:44:54.257Z,25.87
2017-11-13T15:46:55.630Z,13.43
2017-11-13T15:48:56.981Z,8.20
2017-11-13T15:50:58.248Z,7.37
2017-11-13T15:52:59.600Z,9.53
2017-11-13T15:55:00.759Z,8.33
2017-11-13T15:57:01.778Z,14.27
2017-11-13T15:59:02.865Z,9.47
2017-11-13T16:01:04.386Z,4.00
2017-11-13T16:03:05.524Z,8.23
2017-11-13T16:05:06.518Z,8.23
2017-11-13T16:07:07.506Z,7.50
2017-11-13T16:09:08.537Z,12.77
2017-11-13T16:11:09.580Z,5.60
2017-11-13T16:13:10.737Z,6.30
2017-11-13T16:15:11.821Z,6.70
2017-11-13T16:17:13.669Z,8.30
2017-11-13T16:19:14.709Z,5.73
2017-11-13T16:21:15.763Z,5.33
2017-11-13T16:23:16.789Z,4.90
2017-11-13T16:25:17.812Z,8.37
2017-11-13T16:27:19.970Z,13.80
2017-11-13T16:29:20.994Z,6.40
2017-11-13T16:31:22.097Z,10.57
2017-11-13T16:33:23.210Z,15.23
2017-11-13T16:35:24.497Z,8.53
2017-11-13T16:37:25.516Z,6.03
2017-11-13T16:39:26.531Z,6.67
2017-11-13T16:41:27.549Z,11.50
2017-11-13T16:43:28.628Z,13.73
2017-11-13T16:45:29.803Z,11.73
2017-11-13T16:47:30.805Z,16.40
2017-11-13T16:49:31.805Z,8.83
2017-11-13T16:51:32.838Z,14.17
2017-11-13T16:53:33.881Z,13.10
2017-11-13T16:55:35.073Z,9.40
2017-11-13T16:57:36.358Z,16.70
2017-11-13T16:59:37.409Z,12.37
2017-11-13T17:01:38.563Z,17.33
2017-11-13T17:03:39.683Z,9.13
2017-11-13T17:05:41.187Z,13.67
2017-11-13T17:07:42.779Z,15.17
2017-11-13T17:09:43.890Z,12.43
2017-11-13T17:11:45.000Z,11.10
2017-11-13T17:13:46.075Z,20.27
2017-11-13T17:15:47.092Z,18.07
2017-11-13T17:17:48.110Z,14.17
2017-11-13T17:19:49.298Z,19.60
2017-11-13T17:21:50.401Z,21.60
2017-11-13T17:23:51.404Z,15.90
2017-11-13T17:25:52.431Z,40.30
2017-11-13T17:27:53.447Z,18.33
2017-11-13T17:29:54.557Z,16.00
2017-11-13T17:31:55.585Z,12.03
2017-11-13T17:33:56.761Z,19.50
2017-11-13T17:35:57.855Z,43.00
2017-11-13T17:37:59.705Z,18.83
2017-11-13T17:40:01.490Z,12.03
2017-11-13T17:42:03.558Z,20.73
2017-11-13T17:44:04.574Z,22.33
2017-11-13T17:46:05.891Z,19.37
2017-11-13T17:48:06.897Z,14.57
2017-11-13T17:50:07.946Z,16.27
2017-11-13T17:52:09.231Z,28.10
2017-11-13T17:54:10.349Z,20.03
2017-11-13T17:56:11.385Z,21.20
2017-11-13T17:58:12.515Z,19.73
2017-11-13T18:00:13.762Z,15.23
2017-11-13T18:02:14.786Z,19.47
2017-11-13T18:04:15.797Z,22.27
2017-11-13T18:06:16.871Z,26.50
2017-11-13T18:08:17.919Z,23.43
2017-11-13T18:10:19.181Z,24.70
2017-11-13T18:12:20.342Z,22.10
2017-11-13T18:14:21.482Z,31.87
2017-11-13T18:16:22.671Z,18.70
2017-11-13T18:18:24.764Z,30.97
2017-11-13T18:20:26.796Z,33.07
2017-11-13T18:22:39.533Z,30.20
2017-11-13T18:24:45.934Z,18.30
2017-11-13T18:26:47.173Z,27.00
2017-11-13T18:28:49.646Z,36.13
2017-11-13T18:30:50.687Z,21.90
2017-11-13T18:32:51.808Z,20.40
2017-11-13T18:34:53.841Z,17.47
2017-11-13T18:36:54.853Z,31.07
2017-11-13T18:38:55.953Z,27.60
2017-11-13T18:40:57.091Z,20.80
2017-11-13T18:42:59.228Z,29.23
2017-11-13T18:45:01.614Z,21.47
2017-11-13T18:47:02.713Z,35.13
2017-11-13T18:49:03.896Z,20.63
2017-11-13T18:51:04.957Z,22.50
2017-11-13T18:53:06.019Z,27.93
2017-11-13T18:55:07.021Z,19.93
2017-11-13T18:57:08.066Z,22.00
2017-11-13T18:59:09.099Z,27.80
2017-11-13T19:01:10.940Z,26.43
2017-11-13T19:03:19.157Z,33.60
2017-11-13T19:39:29.623Z,15.77
2017-11-13T19:41:31.430Z,23.77
2017-11-13T19:45:59.013Z,25.27
2017-11-13T19:48:02.168Z,29.93
2017-11-13T19:50:03.333Z,41.70
2017-11-13T19:52:04.384Z,26.73
2017-11-13T19:54:08.000Z,19.83
2017-11-13T19:56:10.796Z,26.73
2017-11-13T19:58:12.237Z,20.43
2017-11-13T20:00:13.519Z,19.30
2017-11-13T20:02:17.081Z,26.10
2017-11-13T20:04:18.317Z,28.13
2017-11-13T20:06:20.564Z,20.83
2017-11-13T20:08:22.898Z,21.93
2017-11-13T20:10:24.272Z,20.17
2017-11-13T20:12:26.408Z,30.60
2017-11-13T20:19:46.174Z,26.57
2017-11-13T20:21:50.391Z,28.03
2017-11-13T20:24:11.622Z,20.40
2017-11-13T20:26:17.885Z,23.07
2017-11-13T20:28:19.059Z,25.43
2017-11-13T20:30:20.156Z,30.17
2017-11-13T20:32:21.698Z,26.87
2017-11-13T20:36:38.330Z,21.77
2017-11-13T20:38:42.394Z,23.73
2017-11-13T20:40:51.677Z,25.97
2017-11-13T20:42:54.219Z,24.67
2017-11-13T20:44:58.324Z,27.67
2017-11-13T20:46:59.341Z,24.20
2017-11-13T20:49:00.608Z,28.90
2017-11-13T20:51:03.325Z,30.10
2017-11-13T20:55:51.623Z,23.40
2017-11-13T20:57:52.771Z,25.27
2017-11-13T20:59:54.252Z,32.13
2017-11-13T21:01:55.310Z,29.47
2017-11-13T21:03:57.008Z,27.20
2017-11-13T21:06:29.030Z,35.63
2017-11-13T21:08:30.481Z,26.43
2017-11-13T21:10:31.536Z,27.13
2017-11-13T21:12:32.656Z,31.00
2017-11-13T21:14:33.909Z,26.10
2017-11-13T21:16:34.995Z,19.07
2017-11-13T21:18:36.657Z,23.77
2017-11-13T21:20:38.826Z,21.10
2017-11-13T21:22:40.058Z,22.37
2017-11-13T21:24:41.907Z,28.77
2017-11-13T21:26:42.932Z,23.03
2017-11-13T21:36:20.298Z,23.43
2017-11-13T21:41:19.610Z,13.03
2017-11-13T21:43:21.022Z,17.40
2017-11-13T21:45:23.308Z,17.57
2017-11-13T21:50:07.314Z,23.37
2017-11-13T21:52:08.414Z,21.50
2017-11-13T21:54:16.080Z,23.73
2017-11-13T21:56:28.492Z,33.90
2017-11-13T21:58:29.545Z,21.90
2017-11-13T22:00:32.638Z,24.83
2017-11-13T22:07:32.820Z,27.47
2017-11-13T22:09:33.889Z,26.47
2017-11-13T22:11:34.952Z,29.90
2017-11-13T22:13:47.016Z,31.87
2017-11-13T22:15:48.074Z,28.10
2017-11-13T22:17:49.408Z,12.30
2017-11-13T22:19:50.477Z,26.67
2017-11-13T22:21:58.669Z,37.53
2017-11-13T22:24:05.830Z,17.83
2017-11-13T22:26:07.002Z,44.50
2017-11-13T22:28:23.390Z,14.23
2017-11-13T22:30:24.421Z,19.60
2017-11-13T22:34:32.947Z,27.80
2017-11-13T22:36:34.957Z,25.93
2017-11-13T22:38:39.555Z,17.43
2017-11-13T22:43:10.554Z,34.37
2017-11-13T22:45:11.718Z,21.20
2017-11-13T22:47:34.360Z,27.20
2017-11-13T22:49:36.091Z,15.67
2017-11-13T22:51:40.700Z,23.90
2017-11-13T22:53:42.512Z,34.10
2017-11-13T22:56:01.370Z,21.03
2017-11-13T22:58:02.483Z,19.87
2017-11-13T23:00:04.258Z,32.23
2017-11-13T23:02:05.293Z,24.83
2017-11-13T23:04:06.686Z,14.97
2017-11-13T23:06:07.702Z,17.30
2017-11-13T23:08:08.715Z,18.00
2017-11-13T23:10:09.831Z,21.03
2017-11-13T23:12:11.244Z,18.30
2017-11-13T23:14:12.939Z,25.10
2017-11-13T23:16:13.980Z,34.63
2017-11-13T23:18:15.001Z,25.23
2017-11-13T23:20:16.071Z,20.20
2017-11-13T23:22:17.838Z,24.27
2017-11-13T23:24:18.861Z,21.63
2017-11-13T23:26:19.845Z,20.63
2017-11-13T23:28:20.866Z,27.80
2017-11-13T23:30:22.675Z,22.07
2017-11-13T23:32:23.783Z,28.63
2017-11-13T23:34:24.970Z,18.00
2017-11-13T23:36:25.952Z,29.23
2017-11-13T23:38:26.947Z,25.90
2017-11-13T23:40:28.815Z,29.43
2017-11-13T23:42:29.846Z,23.87
2017-11-13T23:44:30.839Z,32.47
2017-11-13T23:46:31.846Z,19.37
2017-11-13T23:48:32.851Z,32.60
2017-11-13T23:50:34.421Z,21.20
2017-11-13T23:52:35.500Z,22.33
2017-11-13T23:54:36.575Z,25.53
2017-11-13T23:56:37.645Z,35.30
2017-11-13T23:58:38.689Z,15.30
